createdAt,value
2017-12-29T00:01:53.781Z,87.69
2017-12-29T00:04:22.885Z,88.09
2017-12-29T00:06:52.351Z,86.89
2017-12-29T00:09:20.719Z,86.61
2017-12-29T00:11:49.090Z,87.36
2017-12-29T00:14:17.476Z,87.49
2017-12-29T00:16:46.021Z,87.05
2017-12-29T00:19:14.687Z,86.45
2017-12-29T00:21:43.277Z,85.91
2017-12-29T00:24:11.647Z,85.82
2017-12-29T00:26:40.010Z,85.69
2017-12-29T00:29:08.394Z,84.87
2017-12-29T00:31:38.151Z,84.96
2017-12-29T00:34:06.604Z,85.37
2017-12-29T00:36:34.958Z,85.56
2017-12-29T00:39:05.431Z,86.09
2017-12-29T00:41:34.320Z,86.33
2017-12-29T00:44:03.096Z,86.01
2017-12-29T00:46:32.270Z,86.14
2017-12-29T00:49:02.746Z,86.29
2017-12-29T00:51:31.109Z,86.76
2017-12-29T00:53:59.467Z,86.72
2017-12-29T00:56:27.809Z,86.82
2017-12-29T00:58:56.168Z,86.67
2017-12-29T01:01:24.544Z,86.44
2017-12-29T01:03:52.871Z,86.60
2017-12-29T01:06:21.228Z,86.66
2017-12-29T01:08:49.634Z,86.46
2017-12-29T01:11:17.947Z,86.39
2017-12-29T01:13:46.259Z,86.36
2017-12-29T01:16:14.653Z,86.79
2017-12-29T01:18:42.980Z,86.54
2017-12-29T01:21:11.295Z,86.49
2017-12-29T01:23:40.013Z,86.15
2017-12-29T01:26:08.484Z,85.87
2017-12-29T01:28:36.798Z,84.76
2017-12-29T01:31:05.792Z,84.54
2017-12-29T01:33:34.294Z,84.27
2017-12-29T01:36:04.512Z,84.32
2017-12-29T01:38:32.915Z,85.15
2017-12-29T01:41:01.836Z,84.47
2017-12-29T01:43:30.297Z,85.08
2017-12-29T01:45:58.692Z,85.93
2017-12-29T01:48:27.011Z,86.47
2017-12-29T01:50:55.335Z,86.75
2017-12-29T01:53:23.696Z,86.53
2017-12-29T01:55:52.091Z,87.11
2017-12-29T01:58:20.415Z,87.11
2017-12-29T02:00:48.839Z,87.26
2017-12-29T02:03:17.548Z,87.02
2017-12-29T02:05:45.870Z,86.83
2017-12-29T02:08:14.270Z,86.64
2017-12-29T02:10:42.595Z,86.32
2017-12-29T02:13:10.943Z,86.10
2017-12-29T02:15:40.826Z,86.33
2017-12-29T02:18:10.126Z,85.88
2017-12-29T02:20:38.722Z,84.29
2017-12-29T02:23:08.330Z,82.48
2017-12-29T02:25:36.698Z,82.22
2017-12-29T02:28:05.019Z,82.49
2017-12-29T02:30:33.408Z,82.52
2017-12-29T02:33:02.299Z,83.74
2017-12-29T02:35:30.663Z,82.99
2017-12-29T02:38:00.535Z,83.30
2017-12-29T02:40:28.884Z,82.86
2017-12-29T02:42:57.208Z,82.79
2017-12-29T02:45:25.607Z,83.10
2017-12-29T02:47:53.940Z,83.07
2017-12-29T02:50:22.247Z,83.62
2017-12-29T02:52:51.316Z,83.80
2017-12-29T02:55:19.648Z,84.54
2017-12-29T02:57:47.740Z,84.17
2017-12-29T03:00:16.132Z,83.78
2017-12-29T03:02:44.468Z,83.13
2017-12-29T03:05:12.796Z,82.44
2017-12-29T03:07:41.189Z,81.76
2017-12-29T03:10:10.030Z,82.33
2017-12-29T03:12:38.346Z,82.87
2017-12-29T03:15:06.721Z,82.59
2017-12-29T03:17:35.047Z,82.41
2017-12-29T03:20:04.659Z,82.55
2017-12-29T03:22:33.028Z,82.97
2017-12-29T03:25:01.351Z,82.75
2017-12-29T03:27:29.671Z,82.26
2017-12-29T03:29:58.050Z,82.15
2017-12-29T03:32:26.368Z,82.53
2017-12-29T03:34:54.685Z,84.22
2017-12-29T03:37:23.088Z,84.78
2017-12-29T03:39:51.407Z,85.01
2017-12-29T03:42:20.198Z,85.72
2017-12-29T03:44:52.590Z,86.24
2017-12-29T03:47:22.360Z,86.37
2017-12-29T03:49:50.677Z,86.63
2017-12-29T03:52:20.294Z,87.46
2017-12-29T03:54:48.644Z,87.44
2017-12-29T03:57:16.968Z,87.01
2017-12-29T03:59:45.326Z,87.10
2017-12-29T04:02:13.643Z,87.38
2017-12-29T04:04:42.478Z,87.16
2017-12-29T04:07:12.404Z,87.52
2017-12-29T04:09:41.440Z,87.58
2017-12-29T04:12:10.642Z,87.99
2017-12-29T04:14:39.694Z,88.13
2017-12-29T04:17:08.901Z,87.53
2017-12-29T04:19:37.888Z,87.64
2017-12-29T04:22:06.263Z,87.23
2017-12-29T04:24:34.596Z,87.04
2017-12-29T04:27:03.515Z,86.40
2017-12-29T04:29:32.632Z,86.22
2017-12-29T04:32:02.069Z,86.63
2017-12-29T04:34:30.407Z,87.07
2017-12-29T04:36:59.913Z,87.54
2017-12-29T04:39:29.022Z,87.50
2017-12-29T04:41:57.429Z,87.94
2017-12-29T04:44:27.148Z,88.31
2017-12-29T04:46:56.291Z,88.73
2017-12-29T04:49:25.438Z,88.86
2017-12-29T04:51:53.849Z,88.80
2017-12-29T04:54:22.177Z,88.72
2017-12-29T04:56:50.484Z,88.54
2017-12-29T04:59:19.253Z,88.41
2017-12-29T05:01:47.964Z,88.18
2017-12-29T05:04:16.348Z,88.36
2017-12-29T05:06:45.512Z,88.20
2017-12-29T05:09:13.872Z,88.24
2017-12-29T05:11:42.287Z,88.27
2017-12-29T05:14:10.651Z,88.31
2017-12-29T05:16:38.965Z,88.32
2017-12-29T05:19:07.587Z,88.58
2017-12-29T05:21:37.232Z,88.99
2017-12-29T05:24:05.568Z,88.95
2017-12-29T05:26:33.998Z,88.85
2017-12-29T05:29:02.314Z,88.94
2017-12-29T05:31:30.715Z,88.96
2017-12-29T05:33:59.133Z,89.12
2017-12-29T05:36:27.468Z,89.07
2017-12-29T05:38:55.800Z,88.95
2017-12-29T05:41:24.155Z,89.15
2017-12-29T05:43:52.471Z,89.28
2017-12-29T05:46:20.822Z,89.61
2017-12-29T05:48:49.374Z,89.94
2017-12-29T05:51:18.196Z,90.16
2017-12-29T05:53:46.703Z,89.76
2017-12-29T05:56:15.369Z,89.31
2017-12-29T05:58:43.935Z,89.04
2017-12-29T06:01:12.248Z,88.75
2017-12-29T06:03:40.604Z,88.73
2017-12-29T06:06:08.928Z,88.80
2017-12-29T06:08:37.231Z,88.47
2017-12-29T06:11:05.751Z,88.10
2017-12-29T06:13:34.055Z,87.92
2017-12-29T06:16:02.497Z,87.73
2017-12-29T06:18:30.870Z,87.59
2017-12-29T06:20:59.372Z,87.46
2017-12-29T06:23:28.248Z,86.88
2017-12-29T06:25:56.631Z,86.78
2017-12-29T06:28:24.940Z,86.71
2017-12-29T06:30:53.676Z,86.55
2017-12-29T06:33:22.050Z,86.50
2017-12-29T06:35:50.380Z,86.25
2017-12-29T06:38:18.729Z,85.79
2017-12-29T06:40:47.372Z,85.71
2017-12-29T06:43:15.687Z,85.22
2017-12-29T06:45:44.013Z,84.82
2017-12-29T06:48:13.151Z,85.00
2017-12-29T06:50:41.901Z,83.87
2017-12-29T06:53:10.216Z,83.51
2017-12-29T06:55:38.591Z,83.28
2017-12-29T06:58:06.904Z,82.82
2017-12-29T07:00:35.235Z,82.54
2017-12-29T07:03:04.371Z,82.11
2017-12-29T07:05:32.679Z,82.67
2017-12-29T07:08:01.000Z,81.30
2017-12-29T07:10:29.767Z,81.50
2017-12-29T07:12:58.694Z,81.15
2017-12-29T07:15:27.031Z,80.40
2017-12-29T07:17:55.407Z,79.67
2017-12-29T07:20:23.720Z,79.62
2017-12-29T07:22:52.384Z,79.68
2017-12-29T07:25:20.800Z,78.90
2017-12-29T07:27:49.128Z,78.65
2017-12-29T07:30:18.259Z,79.89
2017-12-29T07:32:46.744Z,79.89
2017-12-29T07:35:15.068Z,79.75
2017-12-29T07:37:43.384Z,79.41
2017-12-29T07:40:11.772Z,79.72
2017-12-29T07:42:40.684Z,79.03
2017-12-29T07:45:09.617Z,79.22
2017-12-29T07:47:37.976Z,79.44
2017-12-29T07:50:06.923Z,79.59
2017-12-29T07:52:35.675Z,79.95
2017-12-29T07:55:05.007Z,80.07
2017-12-29T07:57:34.211Z,80.28
2017-12-29T08:00:02.554Z,79.79
2017-12-29T08:02:31.622Z,79.48
2017-12-29T08:04:59.951Z,79.48
2017-12-29T08:07:28.960Z,79.29
2017-12-29T08:09:57.349Z,79.95
2017-12-29T08:12:25.680Z,79.62
2017-12-29T08:14:54.007Z,79.89
2017-12-29T08:17:22.884Z,79.71
2017-12-29T08:19:51.218Z,80.15
2017-12-29T08:22:19.541Z,80.09
2017-12-29T08:24:47.927Z,80.57
2017-12-29T08:27:16.250Z,80.97
2017-12-29T08:29:44.573Z,80.91
2017-12-29T08:32:12.977Z,80.35
2017-12-29T08:34:41.287Z,79.70
2017-12-29T08:37:09.605Z,79.34
2017-12-29T08:39:38.078Z,79.14
2017-12-29T08:42:06.415Z,79.84
2017-12-29T08:44:34.741Z,79.11
2017-12-29T08:47:04.052Z,78.49
2017-12-29T08:49:32.366Z,78.51
2017-12-29T08:52:00.677Z,78.97
2017-12-29T08:54:29.176Z,78.81
2017-12-29T08:56:57.703Z,79.33
2017-12-29T08:59:26.021Z,79.24
2017-12-29T09:01:54.408Z,80.14
2017-12-29T09:04:22.728Z,79.01
2017-12-29T09:06:51.183Z,77.19
2017-12-29T09:09:20.119Z,76.76
2017-12-29T09:11:48.446Z,76.44
2017-12-29T09:14:16.979Z,75.92
2017-12-29T09:16:45.671Z,75.80
2017-12-29T09:19:14.096Z,76.00
2017-12-29T09:21:43.179Z,76.50
2017-12-29T09:24:12.029Z,76.17
2017-12-29T09:26:40.512Z,75.00
2017-12-29T09:29:09.608Z,74.62
2017-12-29T09:31:38.041Z,73.62
2017-12-29T09:34:07.229Z,72.88
2017-12-29T09:36:36.364Z,73.03
2017-12-29T09:39:06.316Z,72.04
2017-12-29T09:41:39.952Z,72.16
2017-12-29T09:44:08.832Z,72.85
2017-12-29T09:46:37.908Z,72.29
2017-12-29T09:49:07.256Z,73.50
2017-12-29T09:51:35.612Z,72.30
2017-12-29T09:54:05.432Z,71.74
2017-12-29T09:56:35.115Z,71.61
2017-12-29T09:59:04.728Z,71.83
2017-12-29T10:01:33.873Z,71.52
2017-12-29T10:04:12.448Z,71.58
2017-12-29T10:06:42.116Z,72.15
2017-12-29T10:09:11.057Z,73.50
2017-12-29T10:11:40.251Z,71.46
2017-12-29T10:14:10.100Z,71.32
2017-12-29T10:16:38.892Z,71.64
2017-12-29T10:19:08.248Z,71.32
2017-12-29T10:21:37.348Z,71.29
2017-12-29T10:24:07.907Z,70.29
2017-12-29T10:26:37.308Z,69.56
2017-12-29T10:29:06.416Z,70.53
2017-12-29T10:31:35.538Z,70.49
2017-12-29T10:34:05.224Z,69.34
2017-12-29T10:36:34.350Z,68.37
2017-12-29T10:39:05.238Z,68.69
2017-12-29T10:41:33.979Z,69.31
2017-12-29T10:44:02.893Z,68.88
2017-12-29T10:46:32.412Z,68.29
2017-12-29T10:49:01.552Z,69.53
2017-12-29T10:51:29.915Z,67.96
2017-12-29T10:53:59.249Z,67.19
2017-12-29T10:56:27.684Z,66.72
2017-12-29T10:58:56.332Z,67.68
2017-12-29T11:01:24.648Z,67.47
2017-12-29T11:03:53.006Z,67.48
2017-12-29T11:06:21.479Z,66.57
2017-12-29T11:08:49.796Z,65.46
2017-12-29T11:11:18.243Z,67.08
2017-12-29T11:13:46.564Z,66.08
2017-12-29T11:16:14.895Z,65.32
2017-12-29T11:18:43.361Z,64.81
2017-12-29T11:21:11.688Z,64.75
2017-12-29T11:23:40.007Z,64.65
2017-12-29T11:26:08.426Z,65.17
2017-12-29T11:28:36.736Z,65.47
2017-12-29T11:31:05.041Z,65.49
2017-12-29T11:33:33.420Z,66.16
2017-12-29T11:36:01.741Z,65.56
2017-12-29T11:38:30.099Z,65.64
2017-12-29T11:40:59.092Z,66.21
2017-12-29T11:43:27.421Z,65.04
2017-12-29T11:45:57.008Z,64.05
2017-12-29T11:48:26.647Z,64.52
2017-12-29T11:50:55.903Z,63.64
2017-12-29T11:53:24.471Z,63.43
2017-12-29T11:55:53.040Z,63.89
2017-12-29T11:58:21.875Z,63.99
2017-12-29T12:00:51.280Z,63.84
2017-12-29T12:03:20.551Z,63.76
2017-12-29T12:05:49.156Z,63.53
2017-12-29T12:08:19.459Z,64.32
2017-12-29T12:10:50.848Z,64.86
2017-12-29T12:13:20.818Z,62.26
2017-12-29T12:15:50.033Z,62.79
2017-12-29T12:18:19.080Z,64.46
2017-12-29T12:20:47.492Z,64.26
2017-12-29T12:23:15.971Z,63.41
2017-12-29T12:25:44.300Z,62.68
2017-12-29T12:28:12.670Z,63.73
2017-12-29T12:30:41.011Z,63.04
2017-12-29T12:33:09.356Z,62.27
2017-12-29T12:35:37.716Z,63.46
2017-12-29T12:38:06.047Z,62.67
2017-12-29T12:40:34.360Z,62.67
2017-12-29T12:43:02.759Z,62.42
2017-12-29T12:45:31.160Z,62.00
2017-12-29T12:47:59.896Z,62.59
2017-12-29T12:50:28.460Z,61.67
2017-12-29T12:52:57.444Z,61.01
2017-12-29T12:55:26.643Z,60.56
2017-12-29T12:57:55.580Z,61.18
2017-12-29T13:00:24.657Z,61.52
2017-12-29T13:02:53.943Z,60.17
2017-12-29T13:05:23.027Z,59.45
2017-12-29T13:07:51.943Z,59.41
2017-12-29T13:10:20.404Z,59.15
2017-12-29T13:12:49.073Z,58.00
2017-12-29T13:15:18.983Z,57.18
2017-12-29T13:17:47.587Z,57.37
2017-12-29T13:20:16.759Z,56.68
2017-12-29T13:22:45.535Z,55.76
2017-12-29T13:25:14.163Z,56.17
2017-12-29T13:27:43.248Z,55.90
2017-12-29T13:30:12.001Z,54.97
2017-12-29T13:32:40.928Z,55.16
2017-12-29T13:35:09.711Z,56.42
2017-12-29T13:37:38.460Z,56.03
2017-12-29T13:40:07.283Z,55.05
2017-12-29T13:42:36.003Z,56.36
2017-12-29T13:45:05.118Z,56.41
2017-12-29T13:47:33.548Z,57.33
2017-12-29T13:50:02.548Z,56.73
2017-12-29T13:52:31.676Z,58.29
2017-12-29T13:55:00.232Z,57.48
2017-12-29T13:57:28.931Z,58.25
2017-12-29T13:59:57.663Z,58.60
2017-12-29T14:02:26.479Z,58.73
2017-12-29T14:04:55.483Z,59.10
2017-12-29T14:07:23.808Z,58.82
2017-12-29T14:09:52.835Z,58.74
2017-12-29T14:12:21.148Z,58.87
2017-12-29T14:14:49.471Z,59.15
2017-12-29T14:17:18.894Z,59.47
2017-12-29T14:19:47.237Z,60.30
2017-12-29T14:22:15.553Z,60.63
2017-12-29T14:24:43.928Z,61.24
2017-12-29T14:27:12.259Z,62.06
2017-12-29T14:29:40.576Z,61.92
2017-12-29T14:32:08.985Z,62.22
2017-12-29T14:34:38.056Z,62.60
2017-12-29T14:37:06.397Z,62.80
2017-12-29T14:39:34.815Z,63.26
2017-12-29T14:42:03.141Z,63.15
2017-12-29T14:44:31.507Z,63.92
2017-12-29T14:47:00.016Z,63.53
2017-12-29T14:49:28.345Z,63.75
2017-12-29T14:51:56.698Z,63.95
2017-12-29T14:54:25.160Z,64.86
2017-12-29T14:56:53.505Z,64.24
2017-12-29T14:59:21.815Z,63.95
2017-12-29T15:01:50.167Z,64.37
2017-12-29T15:04:19.395Z,64.66
2017-12-29T15:06:47.699Z,64.19
2017-12-29T15:09:16.051Z,64.27
2017-12-29T15:11:44.364Z,64.72
2017-12-29T15:14:12.672Z,63.76
2017-12-29T15:16:41.134Z,64.21
2017-12-29T15:19:09.444Z,64.52
2017-12-29T15:21:38.541Z,64.24
2017-12-29T15:24:07.032Z,64.38
2017-12-29T15:26:35.524Z,65.37
2017-12-29T15:29:04.641Z,63.92
2017-12-29T15:31:33.639Z,64.07
2017-12-29T15:34:02.666Z,64.25
2017-12-29T15:36:31.023Z,64.92
2017-12-29T15:38:59.925Z,65.16
2017-12-29T15:41:28.445Z,65.92
2017-12-29T15:43:57.163Z,65.50
2017-12-29T15:46:25.652Z,66.94
2017-12-29T15:48:53.960Z,66.80
2017-12-29T15:51:26.461Z,65.75
2017-12-29T15:53:54.792Z,66.64
2017-12-29T15:56:23.153Z,66.29
2017-12-29T15:58:51.613Z,65.69
2017-12-29T16:01:35.483Z,66.35
2017-12-29T16:04:03.873Z,66.31
2017-12-29T16:06:32.228Z,65.79
2017-12-29T16:09:00.597Z,65.98
2017-12-29T16:11:28.984Z,65.96
2017-12-29T16:13:57.291Z,66.16
2017-12-29T16:16:25.591Z,65.89
2017-12-29T16:18:54.001Z,65.74
2017-12-29T16:21:22.369Z,65.76
2017-12-29T16:23:50.713Z,65.78
2017-12-29T16:26:19.129Z,65.17
2017-12-29T16:28:47.494Z,64.87
2017-12-29T16:31:15.821Z,65.16
2017-12-29T16:33:44.347Z,64.91
2017-12-29T16:36:12.713Z,65.29
2017-12-29T16:38:41.801Z,65.10
2017-12-29T16:41:10.229Z,64.80
2017-12-29T16:43:38.609Z,65.46
2017-12-29T16:46:06.998Z,64.47
2017-12-29T16:48:35.540Z,64.77
2017-12-29T16:51:04.593Z,65.57
2017-12-29T16:53:36.844Z,66.28
2017-12-29T16:56:05.206Z,65.40
2017-12-29T16:58:34.325Z,65.15
2017-12-29T17:01:03.301Z,66.74
2017-12-29T17:03:31.662Z,66.68
2017-12-29T17:05:59.975Z,67.82
2017-12-29T17:08:29.136Z,67.71
2017-12-29T17:10:58.016Z,68.77
2017-12-29T17:13:26.450Z,68.82
2017-12-29T17:15:56.553Z,68.54
2017-12-29T17:18:25.670Z,68.39
2017-12-29T17:20:54.734Z,69.23
2017-12-29T17:23:23.779Z,68.62
2017-12-29T17:25:52.940Z,69.24
2017-12-29T17:28:21.841Z,69.81
2017-12-29T17:30:50.785Z,70.40
2017-12-29T17:33:19.364Z,72.26
2017-12-29T17:35:47.717Z,73.84
2017-12-29T17:38:16.752Z,75.72
2017-12-29T17:40:45.631Z,78.04
2017-12-29T17:43:14.842Z,79.48
2017-12-29T17:45:43.428Z,80.55
2017-12-29T17:48:12.201Z,81.37
2017-12-29T17:50:41.482Z,81.40
2017-12-29T17:53:10.497Z,81.67
2017-12-29T17:55:39.467Z,81.57
2017-12-29T17:58:08.545Z,80.78
2017-12-29T18:00:37.753Z,80.85
2017-12-29T18:03:06.190Z,80.26
2017-12-29T18:05:34.992Z,80.13
2017-12-29T18:08:04.196Z,79.95
2017-12-29T18:10:33.148Z,79.91
2017-12-29T18:13:02.283Z,80.50
2017-12-29T18:15:31.186Z,80.66
2017-12-29T18:17:59.706Z,81.16
2017-12-29T18:20:28.151Z,82.01
2017-12-29T18:22:57.062Z,81.96
2017-12-29T18:25:26.299Z,82.43
2017-12-29T18:27:55.085Z,82.63
2017-12-29T18:30:24.287Z,83.65
2017-12-29T18:32:53.416Z,84.45
2017-12-29T18:35:21.838Z,84.73
2017-12-29T18:37:50.806Z,85.57
2017-12-29T18:40:19.886Z,85.70
2017-12-29T18:42:49.168Z,85.90
2017-12-29T18:45:17.887Z,86.62
2017-12-29T18:47:46.298Z,86.82
2017-12-29T18:50:16.142Z,87.60
2017-12-29T18:52:44.545Z,88.42
2017-12-29T18:55:13.807Z,89.18
2017-12-29T18:57:46.019Z,90.20
2017-12-29T19:00:15.227Z,90.58
2017-12-29T19:02:44.223Z,90.62
2017-12-29T19:05:13.369Z,91.02
2017-12-29T19:07:42.389Z,91.72
2017-12-29T19:10:10.754Z,91.70
2017-12-29T19:12:39.612Z,91.91
2017-12-29T19:15:09.722Z,92.14
2017-12-29T19:17:38.814Z,92.25
2017-12-29T19:20:08.795Z,92.21
2017-12-29T19:22:37.967Z,92.27
2017-12-29T19:25:07.894Z,92.47
2017-12-29T19:27:36.463Z,92.58
2017-12-29T19:30:05.118Z,92.57
2017-12-29T19:32:34.323Z,92.70
2017-12-29T19:35:03.307Z,92.87
2017-12-29T19:37:32.372Z,93.02
2017-12-29T19:40:01.819Z,93.02
2017-12-29T19:42:30.578Z,93.23
2017-12-29T19:44:59.814Z,93.44
2017-12-29T19:47:28.667Z,93.72
2017-12-29T19:49:57.047Z,93.96
2017-12-29T19:52:26.295Z,93.86
2017-12-29T19:54:55.312Z,93.99
2017-12-29T19:57:24.387Z,94.16
2017-12-29T19:59:53.454Z,94.33
2017-12-29T20:02:22.728Z,94.22
2017-12-29T20:04:51.763Z,94.09
2017-12-29T20:07:24.014Z,94.13
2017-12-29T20:09:53.114Z,94.14
2017-12-29T20:12:22.160Z,94.12
2017-12-29T20:14:50.770Z,94.00
2017-12-29T20:17:19.783Z,94.03
2017-12-29T20:19:48.689Z,93.92
2017-12-29T20:22:17.902Z,93.99
2017-12-29T20:24:46.846Z,94.08
2017-12-29T20:27:16.059Z,94.33
2017-12-29T20:29:44.507Z,94.25
2017-12-29T20:32:13.299Z,94.31
2017-12-29T20:34:42.506Z,94.26
2017-12-29T20:37:11.044Z,94.30
2017-12-29T20:39:39.810Z,94.26
2017-12-29T20:42:08.609Z,94.33
2017-12-29T20:44:38.026Z,94.40
2017-12-29T20:47:07.118Z,94.34
2017-12-29T20:49:36.961Z,94.23
2017-12-29T20:52:06.267Z,94.10
2017-12-29T20:54:37.634Z,94.10
2017-12-29T20:57:06.413Z,93.97
2017-12-29T20:59:37.319Z,94.02
2017-12-29T21:02:05.765Z,94.07
2017-12-29T21:04:34.922Z,93.89
2017-12-29T21:07:03.315Z,93.88
2017-12-29T21:09:32.265Z,93.80
2017-12-29T21:12:01.447Z,93.75
2017-12-29T21:14:30.560Z,93.80
2017-12-29T21:19:54.309Z,93.78
2017-12-29T21:22:23.050Z,93.92
2017-12-29T21:24:51.694Z,93.95
2017-12-29T21:27:20.527Z,94.00
2017-12-29T21:29:49.575Z,94.02
2017-12-29T21:32:18.620Z,93.88
2017-12-29T21:34:47.079Z,93.83
2017-12-29T21:37:16.129Z,93.71
2017-12-29T21:39:44.491Z,93.76
2017-12-29T21:42:13.415Z,93.64
2017-12-29T21:44:42.944Z,93.70
2017-12-29T21:47:12.761Z,93.75
2017-12-29T21:49:43.175Z,93.77
2017-12-29T21:52:12.791Z,93.75
2017-12-29T21:54:41.887Z,93.72
2017-12-29T21:57:10.690Z,93.69
2017-12-29T21:59:39.130Z,93.67
2017-12-29T22:02:07.513Z,93.64
2017-12-29T22:04:36.451Z,93.61
2017-12-29T22:07:04.911Z,93.58
2017-12-29T22:09:33.351Z,93.45
2017-12-29T22:12:02.124Z,93.43
2017-12-29T22:14:31.062Z,93.53
2017-12-29T22:16:59.550Z,93.31
2017-12-29T22:19:28.571Z,93.23
2017-12-29T22:21:57.671Z,93.21
2017-12-29T22:24:26.083Z,93.21
2017-12-29T22:26:54.919Z,93.16
2017-12-29T22:29:23.320Z,93.21
2017-12-29T22:31:53.299Z,93.06
2017-12-29T22:34:22.365Z,93.32
2017-12-29T22:36:51.407Z,93.44
2017-12-29T22:39:19.880Z,93.55
2017-12-29T22:41:48.860Z,93.45
2017-12-29T22:44:17.402Z,93.54
2017-12-29T22:46:46.237Z,93.47
2017-12-29T22:49:15.440Z,93.36
2017-12-29T22:51:44.526Z,93.36
2017-12-29T22:54:13.637Z,93.35
2017-12-29T22:56:42.710Z,93.25
2017-12-29T22:59:11.370Z,93.33
2017-12-29T23:01:39.974Z,93.31
2017-12-29T23:04:08.934Z,93.37
2017-12-29T23:06:37.307Z,93.37
2017-12-29T23:09:06.574Z,93.29
2017-12-29T23:11:35.527Z,93.17
2017-12-29T23:14:04.139Z,93.39
2017-12-29T23:16:32.916Z,93.57
2017-12-29T23:19:02.125Z,93.64
2017-12-29T23:21:31.935Z,93.70
2017-12-29T23:24:01.126Z,93.67
2017-12-29T23:26:30.068Z,93.71
2017-12-29T23:28:58.438Z,93.67
2017-12-29T23:31:27.594Z,93.74
2017-12-29T23:33:56.521Z,93.63
2017-12-29T23:36:25.566Z,93.50
2017-12-29T23:38:55.555Z,93.18
2017-12-29T23:41:24.300Z,93.06
2017-12-29T23:43:54.567Z,93.01
2017-12-29T23:46:23.386Z,92.97
2017-12-29T23:48:52.805Z,92.74
2017-12-29T23:51:21.621Z,92.39
2017-12-29T23:53:50.179Z,92.39
2017-12-29T23:56:19.252Z,92.31
2017-12-29T23:58:48.345Z,92.12
